Dace Reinauer — WCW8843 — position and weather

sailwx.info

Track history (hours):
 
Tides and Currents Weather Stations Pressure Air Temp Water Temp Dewpoint Dewpoint Depression Visibility Wind Speed Wind Dir Waves Ship Positions

Dace Reinauer

Owner: REINAUER TRANSPORTATION CO.LLC., STATEN ISLAND, NY. More information available from US FCC via Universal Licensing System and Coast Guard Vessel Documentation Center.

Last reported at 2017-Nov-17 19:30 UTC. Time now 2017-Nov-17 19:41 UTC.
Position N 40°38' W 074°08'.

Length 29 m; draft 4.5 m.

Type: Tug. MMSI: 366238710.

Date/timePositionNaut miles runAvg speedWind from/ knotsBaromVisibWave heightAir tempDewpointWater temp
2017-Nov-17 19:30N 40°38' W 074°08'0 0.0
2017-Nov-17 19:00N 40°38' W 074°08'0 0.2
2017-Nov-17 18:30N 40°39' W 074°08'3 5.3
2017-Nov-17 18:00N 40°39' W 074°04'1 2.1
2017-Nov-17 17:30N 40°39' W 074°03'1 1.1
2017-Nov-17 17:00N 40°39' W 074°02'0 0.0
2017-Nov-17 16:30N 40°39' W 074°02'0 0.0
2017-Nov-17 16:00N 40°39' W 074°02'0 0.0
2017-Nov-17 15:30N 40°39' W 074°02'0 0.0
2017-Nov-17 15:00N 40°39' W 074°02'0 0.0
2017-Nov-17 14:30N 40°39' W 074°02'0 0.4
2017-Nov-17 14:00N 40°40' W 074°02'1 2.4
2017-Nov-17 13:30N 40°41' W 074°02'4 8.3
2017-Nov-17 13:00N 40°44' W 073°58'4 7.1
2017-Nov-17 12:30N 40°47' W 073°56'4 7.3
2017-Nov-17 12:00N 40°48' W 073°51'4 7.5
2017-Nov-17 11:29N 40°50' W 073°47'53 2.4
2017-Nov-16 13:18N 41°11' W 072°42'310.5
2017-Nov-16 13:00N 41°10' W 072°38'510.7
2017-Nov-16 12:30N 41°10' W 072°31'511.1
2017-Nov-16 12:00N 41°11' W 072°24'611.7
2017-Nov-16 11:30N 41°12' W 072°16'611.4
2017-Nov-16 11:00N 41°14' W 072°09'45 8.3
2017-Nov-16 05:32N 41°39' W 071°18'010.9
2017-Nov-16 05:30N 41°39' W 071°19'5 9.0
2017-Nov-16 05:00N 41°43' W 071°21'4 8.7
2017-Nov-16 04:30N 41°47' W 071°23'1 0.3
2017-Nov-15 23:38N 41°48' W 071°24'0 0.1
2017-Nov-15 23:30N 41°48' W 071°24'0 0.0
2017-Nov-15 19:26N 41°48' W 071°24'0 0.1
2017-Nov-15 18:20N 41°48' W 071°24'1 2.6
2017-Nov-15 18:00N 41°48' W 071°23'4 7.5
2017-Nov-15 17:30N 41°44' W 071°22'4 8.0
2017-Nov-15 17:00N 41°41' W 071°19'6 8.0
2017-Nov-15 16:12N 41°34' W 071°19'126 7.3
2017-Nov-14 23:00N 40°31' W 073°43'5 7.9
2017-Nov-14 22:20N 40°28' W 073°49'2 7.4
2017-Nov-14 22:00N 40°28' W 073°52'4 7.9
2017-Nov-14 21:29N 40°30' W 073°57'3 7.2
2017-Nov-14 21:00N 40°32' W 074°01'4 7.2
2017-Nov-14 20:30N 40°35' W 074°02'4 7.8
2017-Nov-14 20:00N 40°39' W 074°04'2 4.8
2017-Nov-14 19:30N 40°39' W 074°07'0 0.0
2017-Nov-14 19:00N 40°39' W 074°07'0 0.0
2017-Nov-14 18:30N 40°39' W 074°07'0 0.0
2017-Nov-14 18:00N 40°39' W 074°07'0 0.0
2017-Nov-14 17:30N 40°39' W 074°07'0 0.0
2017-Nov-14 17:00N 40°39' W 074°07'0 0.0
2017-Nov-14 16:30N 40°39' W 074°07'0 0.0
2017-Nov-14 16:00N 40°39' W 074°07'0 0.0
2017-Nov-14 15:30N 40°39' W 074°07'0 0.0
2017-Nov-14 15:00N 40°39' W 074°07'0 0.0
2017-Nov-14 14:30N 40°39' W 074°07'0 0.0
2017-Nov-14 14:00N 40°39' W 074°07'0 0.0
2017-Nov-14 13:30N 40°39' W 074°07'0 0.0
2017-Nov-14 13:00N 40°39' W 074°07'0 0.0
2017-Nov-14 12:30N 40°39' W 074°07'0 0.0
2017-Nov-14 12:00N 40°39' W 074°07'0 0.0
2017-Nov-14 11:30N 40°39' W 074°07'0 0.0
2017-Nov-14 11:00N 40°39' W 074°07'0 0.0
2017-Nov-14 10:30N 40°39' W 074°07'0 0.0
2017-Nov-14 10:00N 40°39' W 074°07'0 0.0
2017-Nov-14 09:30N 40°39' W 074°07'0 0.0
2017-Nov-14 09:00N 40°39' W 074°07'0 0.0
2017-Nov-14 08:30N 40°39' W 074°07'0 0.0
2017-Nov-14 08:00N 40°39' W 074°07'0 0.0
2017-Nov-14 07:30N 40°39' W 074°07'0 0.0
2017-Nov-14 07:00N 40°39' W 074°07'0 0.0
2017-Nov-14 06:30N 40°39' W 074°07'0 0.0
2017-Nov-14 06:00N 40°39' W 074°07'0 0.0
2017-Nov-14 05:30N 40°39' W 074°07'0 0.0
2017-Nov-14 05:00N 40°39' W 074°07'0 0.0
2017-Nov-14 04:30N 40°39' W 074°07'0 0.0
2017-Nov-14 04:00N 40°39' W 074°07'0 0.0
2017-Nov-14 03:30N 40°39' W 074°07'0 0.0
2017-Nov-14 03:00N 40°39' W 074°07'0 0.0
2017-Nov-14 02:30N 40°39' W 074°07'0 0.0
2017-Nov-14 02:00N 40°39' W 074°07'0 0.0
2017-Nov-14 01:30N 40°39' W 074°07'0 0.0
2017-Nov-14 01:00N 40°39' W 074°07'0 0.0
2017-Nov-14 00:30N 40°39' W 074°07'0 0.0
2017-Nov-14 00:00N 40°39' W 074°07'0 0.0
2017-Nov-13 23:30N 40°39' W 074°07'0 0.0
2017-Nov-13 23:00N 40°39' W 074°07'0 0.0
2017-Nov-13 22:30N 40°39' W 074°07'0 0.0
2017-Nov-13 22:00N 40°39' W 074°07'5 0.2
2017-Nov-13 01:56N 40°36' W 074°12'0 0.0
2017-Nov-13 01:28N 40°36' W 074°12'0 0.0
2017-Nov-13 00:58N 40°36' W 074°12'0 0.0
2017-Nov-13 00:28N 40°36' W 074°12'0 0.0
2017-Nov-12 23:55N 40°36' W 074°12'0 0.0
2017-Nov-12 23:28N 40°36' W 074°12'0 0.0
2017-Nov-12 22:58N 40°36' W 074°12'0 0.0
2017-Nov-12 22:28N 40°36' W 074°12'0 0.0
2017-Nov-12 21:58N 40°36' W 074°12'0 0.0
2017-Nov-12 21:28N 40°36' W 074°12'0 0.0
2017-Nov-12 20:55N 40°36' W 074°12'0 0.0
2017-Nov-12 20:28N 40°36' W 074°12'0 0.0
2017-Nov-12 19:58N 40°36' W 074°12'0 0.0
2017-Nov-12 19:28N 40°36' W 074°12'0 0.0
2017-Nov-12 18:58N 40°36' W 074°12'1 2.3
2017-Nov-12 18:30N 40°38' W 074°12'2 2.9
2017-Nov-12 17:57N 40°39' W 074°11'0 0.7
2017-Nov-12 17:27N 40°39' W 074°10'1 2.9
2017-Nov-12 17:00N 40°39' W 074°09'4 7.7
2017-Nov-12 16:30N 40°39' W 074°04'3 4.9
2017-Nov-12 16:00N 40°40' W 074°01'0 0.0
2017-Nov-12 15:27N 40°40' W 074°01'0 0.0
2017-Nov-12 15:00N 40°40' W 074°01'0 0.0
2017-Nov-12 14:30N 40°40' W 074°01'0 0.0
2017-Nov-12 14:00N 40°40' W 074°01'0 0.0
2017-Nov-12 13:30N 40°40' W 074°01'0 0.0
2017-Nov-12 13:00N 40°40' W 074°01'0 0.0
2017-Nov-12 12:30N 40°40' W 074°01'0 0.0
2017-Nov-12 12:00N 40°40' W 074°01'0 0.0
2017-Nov-12 11:30N 40°40' W 074°01'0 0.0
2017-Nov-12 11:00N 40°40' W 074°01'0 0.0
2017-Nov-12 10:30N 40°40' W 074°01'0 0.0
2017-Nov-12 10:00N 40°40' W 074°01'0 0.1
2017-Nov-12 09:30N 40°40' W 074°01'0 0.0
2017-Nov-12 09:00N 40°40' W 074°01'0 0.0
2017-Nov-12 08:30N 40°40' W 074°01'0 0.0
2017-Nov-12 08:00N 40°40' W 074°01'0 0.0
2017-Nov-12 07:30N 40°40' W 074°01'0 0.0
2017-Nov-12 07:00N 40°40' W 074°01'0 0.0
2017-Nov-12 06:30N 40°40' W 074°01'0 0.0
2017-Nov-12 06:00N 40°40' W 074°01'0 0.0
2017-Nov-12 05:30N 40°40' W 074°01'0 0.0
2017-Nov-12 05:00N 40°40' W 074°01'0 0.0
2017-Nov-12 04:30N 40°40' W 074°01'0 0.0
2017-Nov-12 04:00N 40°40' W 074°01'0 0.0
2017-Nov-12 03:30N 40°40' W 074°01'0 0.0
2017-Nov-12 03:00N 40°40' W 074°01'0 0.0
2017-Nov-12 02:30N 40°40' W 074°01'0 0.0
2017-Nov-12 02:00N 40°40' W 074°01'0 0.0
2017-Nov-12 01:30N 40°40' W 074°01'0 0.0
2017-Nov-12 01:00N 40°40' W 074°01'0 0.0
2017-Nov-12 00:30N 40°40' W 074°01'0 0.1
2017-Nov-12 00:00N 40°40' W 074°01'0 0.1
2017-Nov-11 23:30N 40°40' W 074°01'0 0.4
2017-Nov-11 23:00N 40°40' W 074°01'0 0.0
2017-Nov-11 22:30N 40°40' W 074°01'0 0.0
2017-Nov-11 22:00N 40°40' W 074°01'0 0.0
2017-Nov-11 21:30N 40°40' W 074°01'0 0.0
2017-Nov-11 21:00N 40°40' W 074°01'0 0.0
2017-Nov-11 20:30N 40°40' W 074°01'0 0.0
2017-Nov-11 20:00N 40°40' W 074°01'0 0.0
2017-Nov-11 19:30N 40°40' W 074°01'0 0.0
2017-Nov-11 19:00N 40°40' W 074°01'0 0.0
2017-Nov-11 18:30N 40°40' W 074°01'0 0.0
2017-Nov-11 18:00N 40°40' W 074°01'0 0.0
2017-Nov-11 17:30N 40°40' W 074°01'0 0.0
2017-Nov-11 17:00N 40°40' W 074°01'0 0.0
2017-Nov-11 16:30N 40°40' W 074°01'0 0.0
2017-Nov-11 16:00N 40°40' W 074°01'0 0.0
2017-Nov-11 15:30N 40°40' W 074°01'0 0.0
2017-Nov-11 15:00N 40°40' W 074°01'0 0.0
2017-Nov-11 14:30N 40°40' W 074°01'0 0.0
2017-Nov-11 14:00N 40°40' W 074°01'0 0.0
2017-Nov-11 13:30N 40°40' W 074°01'0 0.0
2017-Nov-11 13:00N 40°40' W 074°01'0 0.0
2017-Nov-11 12:30N 40°40' W 074°01'0 0.0
2017-Nov-11 12:00N 40°40' W 074°01'0 0.0
2017-Nov-11 11:30N 40°40' W 074°01'0 0.0
2017-Nov-11 11:00N 40°40' W 074°01'0 0.0
2017-Nov-11 10:30N 40°40' W 074°01'0 0.0
2017-Nov-11 10:00N 40°40' W 074°01'0 0.0
2017-Nov-11 09:30N 40°40' W 074°01'0 0.0
2017-Nov-11 09:00N 40°40' W 074°01'0 0.0
2017-Nov-11 08:30N 40°40' W 074°01'0 0.0
2017-Nov-11 08:00N 40°40' W 074°01'0 0.0
2017-Nov-11 07:30N 40°40' W 074°01'0 0.0
2017-Nov-11 07:00N 40°40' W 074°01'0 0.0
2017-Nov-11 06:30N 40°40' W 074°01'0 0.0
2017-Nov-11 06:00N 40°40' W 074°01'0 0.0
2017-Nov-11 05:30N 40°40' W 074°01'0 0.0
2017-Nov-11 05:00N 40°40' W 074°01'0 0.0
2017-Nov-11 04:30N 40°40' W 074°01'0 0.0
2017-Nov-11 04:00N 40°40' W 074°01'0 0.0
2017-Nov-11 03:30N 40°40' W 074°01'0 0.0
2017-Nov-11 03:00N 40°40' W 074°01'1 2.4
2017-Nov-11 02:30N 40°41' W 074°01'1 2.2
2017-Nov-11 01:58N 40°40' W 074°01'0 0.0
2017-Nov-11 01:28N 40°40' W 074°01'0 0.0
2017-Nov-11 00:58N 40°40' W 074°01'0 0.0
2017-Nov-11 00:28N 40°40' W 074°01'0 0.0
2017-Nov-10 23:58N 40°40' W 074°01'0 0.0
2017-Nov-10 23:28N 40°40' W 074°01'0 0.0
2017-Nov-10 22:58N 40°40' W 074°01'0 0.0
2017-Nov-10 22:28N 40°40' W 074°01'0 0.0
2017-Nov-10 21:58N 40°40' W 074°01'0 0.0
2017-Nov-10 21:28N 40°40' W 074°01'0 0.0
2017-Nov-10 20:58N 40°40' W 074°01'0 0.0
2017-Nov-10 20:28N 40°40' W 074°01'0 0.0
2017-Nov-10 19:58N 40°40' W 074°01'0 0.0
2017-Nov-10 19:28N 40°40' W 074°01'0 0.0
2017-Nov-10 18:58N 40°40' W 074°01'0 0.0
2017-Nov-10 18:28N 40°40' W 074°01'0 0.0
2017-Nov-10 17:58N 40°40' W 074°01'0 0.0
2017-Nov-10 17:28N 40°40' W 074°01'0 0.0
2017-Nov-10 16:58N 40°40' W 074°01'0 0.0
2017-Nov-10 16:28N 40°40' W 074°01'0 0.0
2017-Nov-10 15:58N 40°40' W 074°01'0 0.0
2017-Nov-10 15:28N 40°40' W 074°01'0 0.0
2017-Nov-10 14:58N 40°40' W 074°01'0 0.0
2017-Nov-10 14:28N 40°40' W 074°01'0 0.0
2017-Nov-10 13:58N 40°40' W 074°01'0 0.0
2017-Nov-10 13:28N 40°40' W 074°01'0 0.0
2017-Nov-10 12:58N 40°40' W 074°01'0 0.0
2017-Nov-10 12:28N 40°40' W 074°01'0 0.0
2017-Nov-10 11:58N 40°40' W 074°01'0 0.0
2017-Nov-10 11:28N 40°40' W 074°01'0 0.0
2017-Nov-10 10:58N 40°40' W 074°01'0 0.0
2017-Nov-10 10:28N 40°40' W 074°01'0 0.0
2017-Nov-10 09:58N 40°40' W 074°01'0 0.0
2017-Nov-10 09:28N 40°40' W 074°01'0 0.0
2017-Nov-10 08:58N 40°40' W 074°01'0 0.0
2017-Nov-10 08:25N 40°40' W 074°01'0 0.0
2017-Nov-10 07:58N 40°40' W 074°01'0 0.0
2017-Nov-10 07:28N 40°40' W 074°01'0 0.0
2017-Nov-10 06:58N 40°40' W 074°01'0 0.0
2017-Nov-10 06:28N 40°40' W 074°01'0 0.0
2017-Nov-10 05:58N 40°40' W 074°01'0 0.0
2017-Nov-10 05:28N 40°40' W 074°01'0 0.0
2017-Nov-10 04:58N 40°40' W 074°01'0 0.0
2017-Nov-10 04:28N 40°40' W 074°01'0 0.0
2017-Nov-10 03:58N 40°40' W 074°01'0 0.0
2017-Nov-10 03:28N 40°40' W 074°01'0 0.0
2017-Nov-10 02:58N 40°40' W 074°01'0 0.0
2017-Nov-10 02:28N 40°40' W 074°01'0 0.0
2017-Nov-10 01:58N 40°40' W 074°01'0 0.0
2017-Nov-10 01:28N 40°40' W 074°01'0 0.0
2017-Nov-10 00:58N 40°40' W 074°01'0 0.0
2017-Nov-10 00:28N 40°40' W 074°01'0 0.0
2017-Nov-09 23:58N 40°40' W 074°01'0 0.0
2017-Nov-09 23:28N 40°40' W 074°01'0 0.0
2017-Nov-09 22:58N 40°40' W 074°01'0 0.0
2017-Nov-09 22:28N 40°40' W 074°01'0 0.0
2017-Nov-09 21:58N 40°40' W 074°01'0 0.0
2017-Nov-09 21:28N 40°40' W 074°01'0 0.0
2017-Nov-09 20:58N 40°40' W 074°01'0 0.0
2017-Nov-09 20:28N 40°40' W 074°01'0 0.0
2017-Nov-09 19:58N 40°40' W 074°01'0 0.0
2017-Nov-09 19:28N 40°40' W 074°01'0 0.0
2017-Nov-09 18:58N 40°40' W 074°01'0 0.0
2017-Nov-09 18:28N 40°40' W 074°01'0 0.0
2017-Nov-09 17:58N 40°40' W 074°01'0 0.0
2017-Nov-09 17:28N 40°40' W 074°01'0 0.0
2017-Nov-09 16:58N 40°40' W 074°01'0 0.0
2017-Nov-09 16:28N 40°40' W 074°01'0 0.0
2017-Nov-09 15:58N 40°40' W 074°01'0 0.0
2017-Nov-09 15:28N 40°40' W 074°01'0 0.0
2017-Nov-09 14:58N 40°40' W 074°01'0 0.0
2017-Nov-09 14:28N 40°40' W 074°01'0 0.0
2017-Nov-09 13:58N 40°40' W 074°01'0 0.0
2017-Nov-09 13:28N 40°40' W 074°01'0 0.0
2017-Nov-09 12:58N 40°40' W 074°01'0 0.0
2017-Nov-09 12:28N 40°40' W 074°01'0 0.0
2017-Nov-09 11:58N 40°40' W 074°01'0 0.0
2017-Nov-09 11:31N 40°40' W 074°01'0 0.0
2017-Nov-09 10:58N 40°40' W 074°01'0 0.0
2017-Nov-09 10:31N 40°40' W 074°01'0 0.0
2017-Nov-09 09:58N 40°40' W 074°01'0 0.0
2017-Nov-09 09:31N 40°40' W 074°01'0 0.0
2017-Nov-09 08:58N 40°40' W 074°01'0 0.0
2017-Nov-09 08:28N 40°40' W 074°01'0 0.0
2017-Nov-09 08:01N 40°40' W 074°01'0 0.0
2017-Nov-09 07:31N 40°40' W 074°01'0 0.0
2017-Nov-09 07:01N 40°40' W 074°01'0 0.0
2017-Nov-09 06:28N 40°40' W 074°01'0 0.0
2017-Nov-09 05:58N 40°40' W 074°01'0 0.0
2017-Nov-09 05:31N 40°40' W 074°01'0 0.0
2017-Nov-09 05:00N 40°40' W 074°01'0 0.0
2017-Nov-09 04:28N 40°40' W 074°01'0 0.0
2017-Nov-09 03:58N 40°40' W 074°01'0 0.0
2017-Nov-09 03:28N 40°40' W 074°01'0 0.0
2017-Nov-09 02:58N 40°40' W 074°01'0 0.0
2017-Nov-09 02:27N 40°40' W 074°01'0 0.0
2017-Nov-09 02:00N 40°40' W 074°01'0 0.0
2017-Nov-09 01:30N 40°40' W 074°01'0 0.0
2017-Nov-09 00:58N 40°40' W 074°01'0 0.0
2017-Nov-09 00:27N 40°40' W 074°01'0 0.0
2017-Nov-09 00:01N 40°40' W 074°01'0 0.0
2017-Nov-08 23:28N 40°40' W 074°01'0 0.0
2017-Nov-08 22:58N 40°40' W 074°01'0 0.0
2017-Nov-08 22:28N 40°40' W 074°01'0 0.0
2017-Nov-08 22:01N 40°40' W 074°01'0 0.0
2017-Nov-08 21:30N 40°40' W 074°01'0 0.0
2017-Nov-08 20:57N 40°40' W 074°01'0 0.0
2017-Nov-08 20:31N 40°40' W 074°01'0 0.0
2017-Nov-08 19:58N 40°40' W 074°01'0 0.0
2017-Nov-08 19:27N 40°40' W 074°01'0 0.0
2017-Nov-08 19:00N 40°40' W 074°01'0 0.0
2017-Nov-08 18:30N 40°40' W 074°01'0 0.0
2017-Nov-08 18:01N 40°40' W 074°01'0 0.0
2017-Nov-08 17:28N 40°40' W 074°01'0 0.0
2017-Nov-08 17:00N 40°40' W 074°01'0 0.0
2017-Nov-08 16:30N 40°40' W 074°01'0 0.0
2017-Nov-08 15:58N 40°40' W 074°01'0 0.0
2017-Nov-08 15:30N 40°40' W 074°01'0 0.0
2017-Nov-08 15:00N 40°40' W 074°01'0 0.3
2017-Nov-08 14:28N 40°40' W 074°01'0 0.0
2017-Nov-08 13:58N 40°40' W 074°01'0 0.0
2017-Nov-08 13:28N 40°40' W 074°01'0 0.0
2017-Nov-08 12:58N 40°40' W 074°01'0 0.0
2017-Nov-08 12:28N 40°40' W 074°01'0 0.0
2017-Nov-08 11:58N 40°40' W 074°01'0 0.0
2017-Nov-08 11:28N 40°40' W 074°01'0 0.0
2017-Nov-08 10:58N 40°40' W 074°01'0 0.0
2017-Nov-08 10:28N 40°40' W 074°01'0 0.0
2017-Nov-08 09:58N 40°40' W 074°01'0 0.0
2017-Nov-08 09:28N 40°40' W 074°01'0 0.0
2017-Nov-08 08:58N 40°40' W 074°01'0 0.0
2017-Nov-08 08:28N 40°40' W 074°01'0 0.0
2017-Nov-08 07:58N 40°40' W 074°01'0 0.0
2017-Nov-08 07:28N 40°40' W 074°01'0 0.0
2017-Nov-08 06:58N 40°40' W 074°01'0 0.0
2017-Nov-08 06:28N 40°40' W 074°01'0 0.0
2017-Nov-08 05:58N 40°40' W 074°01'0 0.0
2017-Nov-08 05:28N 40°40' W 074°01'0 0.0
2017-Nov-08 04:58N 40°40' W 074°01'0 0.0
2017-Nov-08 04:28N 40°40' W 074°01'0 0.0
2017-Nov-08 03:58N 40°40' W 074°01'0 0.0
2017-Nov-08 03:28N 40°40' W 074°01'0 0.0
2017-Nov-08 02:58N 40°40' W 074°01'0 0.0
2017-Nov-08 02:28N 40°40' W 074°01'0 0.0
2017-Nov-08 01:58N 40°40' W 074°01'0 0.0
2017-Nov-08 01:28N 40°40' W 074°01'0 0.0
2017-Nov-08 00:59N 40°40' W 074°01'1 2.3
2017-Nov-08 00:30N 40°40' W 074°02'0 0.1
2017-Nov-08 00:00N 40°40' W 074°02'0 0.0
2017-Nov-07 23:30N 40°40' W 074°02'0 0.0
2017-Nov-07 23:00N 40°40' W 074°02'0 0.0
2017-Nov-07 22:30N 40°40' W 074°02'0 0.1
2017-Nov-07 22:00N 40°40' W 074°02'0 0.0
2017-Nov-07 21:30N 40°40' W 074°02'0 0.0
2017-Nov-07 21:00N 40°40' W 074°02'0 0.0
2017-Nov-07 20:30N 40°40' W 074°02'0 0.0
2017-Nov-07 20:00N 40°40' W 074°02'  
Track history (hours):
 
Tides and Currents Weather Stations Pressure Air Temp Water Temp Dewpoint Dewpoint Depression Visibility Wind Speed Wind Dir Waves Ship Positions

Dace Reinauer

Owner: REINAUER TRANSPORTATION CO.LLC., STATEN ISLAND, NY. More information available from US FCC via Universal Licensing System and Coast Guard Vessel Documentation Center.

Last reported at 2017-Nov-17 19:30 UTC. Time now 2017-Nov-17 19:41 UTC.
Position N 40°38' W 074°08'.

Length 29 m; draft 4.5 m.

Type: Tug. MMSI: 366238710.

Date/timePositionNaut miles runAvg speedWind from/ knotsBaromVisibWave heightAir tempDewpointWater temp
2017-Nov-17 19:30N 40°38' W 074°08'0 0.0
2017-Nov-17 19:00N 40°38' W 074°08'0 0.2
2017-Nov-17 18:30N 40°39' W 074°08'3 5.3
2017-Nov-17 18:00N 40°39' W 074°04'1 2.1
2017-Nov-17 17:30N 40°39' W 074°03'1 1.1
2017-Nov-17 17:00N 40°39' W 074°02'0 0.0
2017-Nov-17 16:30N 40°39' W 074°02'0 0.0
2017-Nov-17 16:00N 40°39' W 074°02'0 0.0
2017-Nov-17 15:30N 40°39' W 074°02'0 0.0
2017-Nov-17 15:00N 40°39' W 074°02'0 0.0
2017-Nov-17 14:30N 40°39' W 074°02'0 0.4
2017-Nov-17 14:00N 40°40' W 074°02'1 2.4
2017-Nov-17 13:30N 40°41' W 074°02'4 8.3
2017-Nov-17 13:00N 40°44' W 073°58'4 7.1
2017-Nov-17 12:30N 40°47' W 073°56'4 7.3
2017-Nov-17 12:00N 40°48' W 073°51'4 7.5
2017-Nov-17 11:29N 40°50' W 073°47'53 2.4
2017-Nov-16 13:18N 41°11' W 072°42'310.5
2017-Nov-16 13:00N 41°10' W 072°38'510.7
2017-Nov-16 12:30N 41°10' W 072°31'511.1
2017-Nov-16 12:00N 41°11' W 072°24'611.7
2017-Nov-16 11:30N 41°12' W 072°16'611.4
2017-Nov-16 11:00N 41°14' W 072°09'45 8.3
2017-Nov-16 05:32N 41°39' W 071°18'010.9
2017-Nov-16 05:30N 41°39' W 071°19'5 9.0
2017-Nov-16 05:00N 41°43' W 071°21'4 8.7
2017-Nov-16 04:30N 41°47' W 071°23'1 0.3
2017-Nov-15 23:38N 41°48' W 071°24'0 0.1
2017-Nov-15 23:30N 41°48' W 071°24'0 0.0
2017-Nov-15 19:26N 41°48' W 071°24'0 0.1
2017-Nov-15 18:20N 41°48' W 071°24'1 2.6
2017-Nov-15 18:00N 41°48' W 071°23'4 7.5
2017-Nov-15 17:30N 41°44' W 071°22'4 8.0
2017-Nov-15 17:00N 41°41' W 071°19'6 8.0
2017-Nov-15 16:12N 41°34' W 071°19'126 7.3
2017-Nov-14 23:00N 40°31' W 073°43'5 7.9
2017-Nov-14 22:20N 40°28' W 073°49'2 7.4
2017-Nov-14 22:00N 40°28' W 073°52'4 7.9
2017-Nov-14 21:29N 40°30' W 073°57'3 7.2
2017-Nov-14 21:00N 40°32' W 074°01'4 7.2
2017-Nov-14 20:30N 40°35' W 074°02'4 7.8
2017-Nov-14 20:00N 40°39' W 074°04'2 4.8
2017-Nov-14 19:30N 40°39' W 074°07'0 0.0
2017-Nov-14 19:00N 40°39' W 074°07'0 0.0
2017-Nov-14 18:30N 40°39' W 074°07'0 0.0
2017-Nov-14 18:00N 40°39' W 074°07'0 0.0
2017-Nov-14 17:30N 40°39' W 074°07'0 0.0
2017-Nov-14 17:00N 40°39' W 074°07'0 0.0
2017-Nov-14 16:30N 40°39' W 074°07'0 0.0
2017-Nov-14 16:00N 40°39' W 074°07'0 0.0
2017-Nov-14 15:30N 40°39' W 074°07'0 0.0
2017-Nov-14 15:00N 40°39' W 074°07'0 0.0
2017-Nov-14 14:30N 40°39' W 074°07'0 0.0
2017-Nov-14 14:00N 40°39' W 074°07'0 0.0
2017-Nov-14 13:30N 40°39' W 074°07'0 0.0
2017-Nov-14 13:00N 40°39' W 074°07'0 0.0
2017-Nov-14 12:30N 40°39' W 074°07'0 0.0
2017-Nov-14 12:00N 40°39' W 074°07'0 0.0
2017-Nov-14 11:30N 40°39' W 074°07'0 0.0
2017-Nov-14 11:00N 40°39' W 074°07'0 0.0
2017-Nov-14 10:30N 40°39' W 074°07'0 0.0
2017-Nov-14 10:00N 40°39' W 074°07'0 0.0
2017-Nov-14 09:30N 40°39' W 074°07'0 0.0
2017-Nov-14 09:00N 40°39' W 074°07'0 0.0
2017-Nov-14 08:30N 40°39' W 074°07'0 0.0
2017-Nov-14 08:00N 40°39' W 074°07'0 0.0
2017-Nov-14 07:30N 40°39' W 074°07'0 0.0
2017-Nov-14 07:00N 40°39' W 074°07'0 0.0
2017-Nov-14 06:30N 40°39' W 074°07'0 0.0
2017-Nov-14 06:00N 40°39' W 074°07'0 0.0
2017-Nov-14 05:30N 40°39' W 074°07'0 0.0
2017-Nov-14 05:00N 40°39' W 074°07'0 0.0
2017-Nov-14 04:30N 40°39' W 074°07'0 0.0
2017-Nov-14 04:00N 40°39' W 074°07'0 0.0
2017-Nov-14 03:30N 40°39' W 074°07'0 0.0
2017-Nov-14 03:00N 40°39' W 074°07'0 0.0
2017-Nov-14 02:30N 40°39' W 074°07'0 0.0
2017-Nov-14 02:00N 40°39' W 074°07'0 0.0
2017-Nov-14 01:30N 40°39' W 074°07'0 0.0
2017-Nov-14 01:00N 40°39' W 074°07'0 0.0
2017-Nov-14 00:30N 40°39' W 074°07'0 0.0
2017-Nov-14 00:00N 40°39' W 074°07'0 0.0
2017-Nov-13 23:30N 40°39' W 074°07'0 0.0
2017-Nov-13 23:00N 40°39' W 074°07'0 0.0
2017-Nov-13 22:30N 40°39' W 074°07'0 0.0
2017-Nov-13 22:00N 40°39' W 074°07'5 0.2
2017-Nov-13 01:56N 40°36' W 074°12'0 0.0
2017-Nov-13 01:28N 40°36' W 074°12'0 0.0
2017-Nov-13 00:58N 40°36' W 074°12'0 0.0
2017-Nov-13 00:28N 40°36' W 074°12'0 0.0
2017-Nov-12 23:55N 40°36' W 074°12'0 0.0
2017-Nov-12 23:28N 40°36' W 074°12'0 0.0
2017-Nov-12 22:58N 40°36' W 074°12'0 0.0
2017-Nov-12 22:28N 40°36' W 074°12'0 0.0
2017-Nov-12 21:58N 40°36' W 074°12'0 0.0
2017-Nov-12 21:28N 40°36' W 074°12'0 0.0
2017-Nov-12 20:55N 40°36' W 074°12'0 0.0
2017-Nov-12 20:28N 40°36' W 074°12'0 0.0
2017-Nov-12 19:58N 40°36' W 074°12'0 0.0
2017-Nov-12 19:28N 40°36' W 074°12'0 0.0
2017-Nov-12 18:58N 40°36' W 074°12'1 2.3
2017-Nov-12 18:30N 40°38' W 074°12'2 2.9
2017-Nov-12 17:57N 40°39' W 074°11'0 0.7
2017-Nov-12 17:27N 40°39' W 074°10'1 2.9
2017-Nov-12 17:00N 40°39' W 074°09'4 7.7
2017-Nov-12 16:30N 40°39' W 074°04'3 4.9
2017-Nov-12 16:00N 40°40' W 074°01'0 0.0
2017-Nov-12 15:27N 40°40' W 074°01'0 0.0
2017-Nov-12 15:00N 40°40' W 074°01'0 0.0
2017-Nov-12 14:30N 40°40' W 074°01'0 0.0
2017-Nov-12 14:00N 40°40' W 074°01'0 0.0
2017-Nov-12 13:30N 40°40' W 074°01'0 0.0
2017-Nov-12 13:00N 40°40' W 074°01'0 0.0
2017-Nov-12 12:30N 40°40' W 074°01'0 0.0
2017-Nov-12 12:00N 40°40' W 074°01'0 0.0
2017-Nov-12 11:30N 40°40' W 074°01'0 0.0
2017-Nov-12 11:00N 40°40' W 074°01'0 0.0
2017-Nov-12 10:30N 40°40' W 074°01'0 0.0
2017-Nov-12 10:00N 40°40' W 074°01'0 0.1
2017-Nov-12 09:30N 40°40' W 074°01'0 0.0
2017-Nov-12 09:00N 40°40' W 074°01'0 0.0
2017-Nov-12 08:30N 40°40' W 074°01'0 0.0
2017-Nov-12 08:00N 40°40' W 074°01'0 0.0
2017-Nov-12 07:30N 40°40' W 074°01'0 0.0
2017-Nov-12 07:00N 40°40' W 074°01'0 0.0
2017-Nov-12 06:30N 40°40' W 074°01'0 0.0
2017-Nov-12 06:00N 40°40' W 074°01'0 0.0
2017-Nov-12 05:30N 40°40' W 074°01'0 0.0
2017-Nov-12 05:00N 40°40' W 074°01'0 0.0
2017-Nov-12 04:30N 40°40' W 074°01'0 0.0
2017-Nov-12 04:00N 40°40' W 074°01'0 0.0
2017-Nov-12 03:30N 40°40' W 074°01'0 0.0
2017-Nov-12 03:00N 40°40' W 074°01'0 0.0
2017-Nov-12 02:30N 40°40' W 074°01'0 0.0
2017-Nov-12 02:00N 40°40' W 074°01'0 0.0
2017-Nov-12 01:30N 40°40' W 074°01'0 0.0
2017-Nov-12 01:00N 40°40' W 074°01'0 0.0
2017-Nov-12 00:30N 40°40' W 074°01'0 0.1
2017-Nov-12 00:00N 40°40' W 074°01'0 0.1
2017-Nov-11 23:30N 40°40' W 074°01'0 0.4
2017-Nov-11 23:00N 40°40' W 074°01'0 0.0
2017-Nov-11 22:30N 40°40' W 074°01'0 0.0
2017-Nov-11 22:00N 40°40' W 074°01'0 0.0
2017-Nov-11 21:30N 40°40' W 074°01'0 0.0
2017-Nov-11 21:00N 40°40' W 074°01'0 0.0
2017-Nov-11 20:30N 40°40' W 074°01'0 0.0
2017-Nov-11 20:00N 40°40' W 074°01'0 0.0
2017-Nov-11 19:30N 40°40' W 074°01'0 0.0
2017-Nov-11 19:00N 40°40' W 074°01'0 0.0
2017-Nov-11 18:30N 40°40' W 074°01'0 0.0
2017-Nov-11 18:00N 40°40' W 074°01'0 0.0
2017-Nov-11 17:30N 40°40' W 074°01'0 0.0
2017-Nov-11 17:00N 40°40' W 074°01'0 0.0
2017-Nov-11 16:30N 40°40' W 074°01'0 0.0
2017-Nov-11 16:00N 40°40' W 074°01'0 0.0
2017-Nov-11 15:30N 40°40' W 074°01'0 0.0
2017-Nov-11 15:00N 40°40' W 074°01'0 0.0
2017-Nov-11 14:30N 40°40' W 074°01'0 0.0
2017-Nov-11 14:00N 40°40' W 074°01'0 0.0
2017-Nov-11 13:30N 40°40' W 074°01'0 0.0
2017-Nov-11 13:00N 40°40' W 074°01'0 0.0
2017-Nov-11 12:30N 40°40' W 074°01'0 0.0
2017-Nov-11 12:00N 40°40' W 074°01'0 0.0
2017-Nov-11 11:30N 40°40' W 074°01'0 0.0
2017-Nov-11 11:00N 40°40' W 074°01'0 0.0
2017-Nov-11 10:30N 40°40' W 074°01'0 0.0
2017-Nov-11 10:00N 40°40' W 074°01'0 0.0
2017-Nov-11 09:30N 40°40' W 074°01'0 0.0
2017-Nov-11 09:00N 40°40' W 074°01'0 0.0
2017-Nov-11 08:30N 40°40' W 074°01'0 0.0
2017-Nov-11 08:00N 40°40' W 074°01'0 0.0
2017-Nov-11 07:30N 40°40' W 074°01'0 0.0
2017-Nov-11 07:00N 40°40' W 074°01'0 0.0
2017-Nov-11 06:30N 40°40' W 074°01'0 0.0
2017-Nov-11 06:00N 40°40' W 074°01'0 0.0
2017-Nov-11 05:30N 40°40' W 074°01'0 0.0
2017-Nov-11 05:00N 40°40' W 074°01'0 0.0
2017-Nov-11 04:30N 40°40' W 074°01'0 0.0
2017-Nov-11 04:00N 40°40' W 074°01'0 0.0
2017-Nov-11 03:30N 40°40' W 074°01'0 0.0
2017-Nov-11 03:00N 40°40' W 074°01'1 2.4
2017-Nov-11 02:30N 40°41' W 074°01'1 2.2
2017-Nov-11 01:58N 40°40' W 074°01'0 0.0
2017-Nov-11 01:28N 40°40' W 074°01'0 0.0
2017-Nov-11 00:58N 40°40' W 074°01'0 0.0
2017-Nov-11 00:28N 40°40' W 074°01'0 0.0
2017-Nov-10 23:58N 40°40' W 074°01'0 0.0
2017-Nov-10 23:28N 40°40' W 074°01'0 0.0
2017-Nov-10 22:58N 40°40' W 074°01'0 0.0
2017-Nov-10 22:28N 40°40' W 074°01'0 0.0
2017-Nov-10 21:58N 40°40' W 074°01'0 0.0
2017-Nov-10 21:28N 40°40' W 074°01'0 0.0
2017-Nov-10 20:58N 40°40' W 074°01'0 0.0
2017-Nov-10 20:28N 40°40' W 074°01'0 0.0
2017-Nov-10 19:58N 40°40' W 074°01'0 0.0
2017-Nov-10 19:28N 40°40' W 074°01'0 0.0
2017-Nov-10 18:58N 40°40' W 074°01'0 0.0
2017-Nov-10 18:28N 40°40' W 074°01'0 0.0
2017-Nov-10 17:58N 40°40' W 074°01'0 0.0
2017-Nov-10 17:28N 40°40' W 074°01'0 0.0
2017-Nov-10 16:58N 40°40' W 074°01'0 0.0
2017-Nov-10 16:28N 40°40' W 074°01'0 0.0
2017-Nov-10 15:58N 40°40' W 074°01'0 0.0
2017-Nov-10 15:28N 40°40' W 074°01'0 0.0
2017-Nov-10 14:58N 40°40' W 074°01'0 0.0
2017-Nov-10 14:28N 40°40' W 074°01'0 0.0
2017-Nov-10 13:58N 40°40' W 074°01'0 0.0
2017-Nov-10 13:28N 40°40' W 074°01'0 0.0
2017-Nov-10 12:58N 40°40' W 074°01'0 0.0
2017-Nov-10 12:28N 40°40' W 074°01'0 0.0
2017-Nov-10 11:58N 40°40' W 074°01'0 0.0
2017-Nov-10 11:28N 40°40' W 074°01'0 0.0
2017-Nov-10 10:58N 40°40' W 074°01'0 0.0
2017-Nov-10 10:28N 40°40' W 074°01'0 0.0
2017-Nov-10 09:58N 40°40' W 074°01'0 0.0
2017-Nov-10 09:28N 40°40' W 074°01'0 0.0
2017-Nov-10 08:58N 40°40' W 074°01'0 0.0
2017-Nov-10 08:25N 40°40' W 074°01'0 0.0
2017-Nov-10 07:58N 40°40' W 074°01'0 0.0
2017-Nov-10 07:28N 40°40' W 074°01'0 0.0
2017-Nov-10 06:58N 40°40' W 074°01'0 0.0
2017-Nov-10 06:28N 40°40' W 074°01'0 0.0
2017-Nov-10 05:58N 40°40' W 074°01'0 0.0
2017-Nov-10 05:28N 40°40' W 074°01'0 0.0
2017-Nov-10 04:58N 40°40' W 074°01'0 0.0
2017-Nov-10 04:28N 40°40' W 074°01'0 0.0
2017-Nov-10 03:58N 40°40' W 074°01'0 0.0
2017-Nov-10 03:28N 40°40' W 074°01'0 0.0
2017-Nov-10 02:58N 40°40' W 074°01'0 0.0
2017-Nov-10 02:28N 40°40' W 074°01'0 0.0
2017-Nov-10 01:58N 40°40' W 074°01'0 0.0
2017-Nov-10 01:28N 40°40' W 074°01'0 0.0
2017-Nov-10 00:58N 40°40' W 074°01'0 0.0
2017-Nov-10 00:28N 40°40' W 074°01'0 0.0
2017-Nov-09 23:58N 40°40' W 074°01'0 0.0
2017-Nov-09 23:28N 40°40' W 074°01'0 0.0
2017-Nov-09 22:58N 40°40' W 074°01'0 0.0
2017-Nov-09 22:28N 40°40' W 074°01'0 0.0
2017-Nov-09 21:58N 40°40' W 074°01'0 0.0
2017-Nov-09 21:28N 40°40' W 074°01'0 0.0
2017-Nov-09 20:58N 40°40' W 074°01'0 0.0
2017-Nov-09 20:28N 40°40' W 074°01'0 0.0
2017-Nov-09 19:58N 40°40' W 074°01'0 0.0
2017-Nov-09 19:28N 40°40' W 074°01'0 0.0
2017-Nov-09 18:58N 40°40' W 074°01'0 0.0
2017-Nov-09 18:28N 40°40' W 074°01'0 0.0
2017-Nov-09 17:58N 40°40' W 074°01'0 0.0
2017-Nov-09 17:28N 40°40' W 074°01'0 0.0
2017-Nov-09 16:58N 40°40' W 074°01'0 0.0
2017-Nov-09 16:28N 40°40' W 074°01'0 0.0
2017-Nov-09 15:58N 40°40' W 074°01'0 0.0
2017-Nov-09 15:28N 40°40' W 074°01'0 0.0
2017-Nov-09 14:58N 40°40' W 074°01'0 0.0
2017-Nov-09 14:28N 40°40' W 074°01'0 0.0
2017-Nov-09 13:58N 40°40' W 074°01'0 0.0
2017-Nov-09 13:28N 40°40' W 074°01'0 0.0
2017-Nov-09 12:58N 40°40' W 074°01'0 0.0
2017-Nov-09 12:28N 40°40' W 074°01'0 0.0
2017-Nov-09 11:58N 40°40' W 074°01'0 0.0
2017-Nov-09 11:31N 40°40' W 074°01'0 0.0
2017-Nov-09 10:58N 40°40' W 074°01'0 0.0
2017-Nov-09 10:31N 40°40' W 074°01'0 0.0
2017-Nov-09 09:58N 40°40' W 074°01'0 0.0
2017-Nov-09 09:31N 40°40' W 074°01'0 0.0
2017-Nov-09 08:58N 40°40' W 074°01'0 0.0
2017-Nov-09 08:28N 40°40' W 074°01'0 0.0
2017-Nov-09 08:01N 40°40' W 074°01'0 0.0
2017-Nov-09 07:31N 40°40' W 074°01'0 0.0
2017-Nov-09 07:01N 40°40' W 074°01'0 0.0
2017-Nov-09 06:28N 40°40' W 074°01'0 0.0
2017-Nov-09 05:58N 40°40' W 074°01'0 0.0
2017-Nov-09 05:31N 40°40' W 074°01'0 0.0
2017-Nov-09 05:00N 40°40' W 074°01'0 0.0
2017-Nov-09 04:28N 40°40' W 074°01'0 0.0
2017-Nov-09 03:58N 40°40' W 074°01'0 0.0
2017-Nov-09 03:28N 40°40' W 074°01'0 0.0
2017-Nov-09 02:58N 40°40' W 074°01'0 0.0
2017-Nov-09 02:27N 40°40' W 074°01'0 0.0
2017-Nov-09 02:00N 40°40' W 074°01'0 0.0
2017-Nov-09 01:30N 40°40' W 074°01'0 0.0
2017-Nov-09 00:58N 40°40' W 074°01'0 0.0
2017-Nov-09 00:27N 40°40' W 074°01'0 0.0
2017-Nov-09 00:01N 40°40' W 074°01'0 0.0
2017-Nov-08 23:28N 40°40' W 074°01'0 0.0
2017-Nov-08 22:58N 40°40' W 074°01'0 0.0
2017-Nov-08 22:28N 40°40' W 074°01'0 0.0
2017-Nov-08 22:01N 40°40' W 074°01'0 0.0
2017-Nov-08 21:30N 40°40' W 074°01'0 0.0
2017-Nov-08 20:57N 40°40' W 074°01'0 0.0
2017-Nov-08 20:31N 40°40' W 074°01'0 0.0
2017-Nov-08 19:58N 40°40' W 074°01'0 0.0
2017-Nov-08 19:27N 40°40' W 074°01'0 0.0
2017-Nov-08 19:00N 40°40' W 074°01'0 0.0
2017-Nov-08 18:30N 40°40' W 074°01'0 0.0
2017-Nov-08 18:01N 40°40' W 074°01'0 0.0
2017-Nov-08 17:28N 40°40' W 074°01'0 0.0
2017-Nov-08 17:00N 40°40' W 074°01'0 0.0
2017-Nov-08 16:30N 40°40' W 074°01'0 0.0
2017-Nov-08 15:58N 40°40' W 074°01'0 0.0
2017-Nov-08 15:30N 40°40' W 074°01'0 0.0
2017-Nov-08 15:00N 40°40' W 074°01'0 0.3
2017-Nov-08 14:28N 40°40' W 074°01'0 0.0
2017-Nov-08 13:58N 40°40' W 074°01'0 0.0
2017-Nov-08 13:28N 40°40' W 074°01'0 0.0
2017-Nov-08 12:58N 40°40' W 074°01'0 0.0
2017-Nov-08 12:28N 40°40' W 074°01'0 0.0
2017-Nov-08 11:58N 40°40' W 074°01'0 0.0
2017-Nov-08 11:28N 40°40' W 074°01'0 0.0
2017-Nov-08 10:58N 40°40' W 074°01'0 0.0
2017-Nov-08 10:28N 40°40' W 074°01'0 0.0
2017-Nov-08 09:58N 40°40' W 074°01'0 0.0
2017-Nov-08 09:28N 40°40' W 074°01'0 0.0
2017-Nov-08 08:58N 40°40' W 074°01'0 0.0
2017-Nov-08 08:28N 40°40' W 074°01'0 0.0
2017-Nov-08 07:58N 40°40' W 074°01'0 0.0
2017-Nov-08 07:28N 40°40' W 074°01'0 0.0
2017-Nov-08 06:58N 40°40' W 074°01'0 0.0
2017-Nov-08 06:28N 40°40' W 074°01'0 0.0
2017-Nov-08 05:58N 40°40' W 074°01'0 0.0
2017-Nov-08 05:28N 40°40' W 074°01'0 0.0
2017-Nov-08 04:58N 40°40' W 074°01'0 0.0
2017-Nov-08 04:28N 40°40' W 074°01'0 0.0
2017-Nov-08 03:58N 40°40' W 074°01'0 0.0
2017-Nov-08 03:28N 40°40' W 074°01'0 0.0
2017-Nov-08 02:58N 40°40' W 074°01'0 0.0
2017-Nov-08 02:28N 40°40' W 074°01'0 0.0
2017-Nov-08 01:58N 40°40' W 074°01'0 0.0
2017-Nov-08 01:28N 40°40' W 074°01'0 0.0
2017-Nov-08 00:59N 40°40' W 074°01'1 2.3
2017-Nov-08 00:30N 40°40' W 074°02'0 0.1
2017-Nov-08 00:00N 40°40' W 074°02'0 0.0
2017-Nov-07 23:30N 40°40' W 074°02'0 0.0
2017-Nov-07 23:00N 40°40' W 074°02'0 0.0
2017-Nov-07 22:30N 40°40' W 074°02'0 0.1
2017-Nov-07 22:00N 40°40' W 074°02'0 0.0
2017-Nov-07 21:30N 40°40' W 074°02'0 0.0
2017-Nov-07 21:00N 40°40' W 074°02'0 0.0
2017-Nov-07 20:30N 40°40' W 074°02'0 0.0
2017-Nov-07 20:00N 40°40' W 074°02'  

Dump ship's entire track history